Time;durP1;ratioP1;P1;durP2;ratioP2;P2;SDS_P1;SDS_P2;PMS_P1;PMS_P2;Temp;Humidity;BMP_temperature;BMP_pressure;BME280_temperature;BME280_humidity;BME280_pressure;Samples;Min_cycle;Max_cycle;Signal;HPM_P1;HPM_P2
2021/04/24 00:00:50;;;;;;;7.40;5.30;;;9.60;55.30;;;;;;5074815;28;20526;-81
2021/04/24 00:03:16;;;;;;;7.17;5.30;;;9.60;55.30;;;;;;5092590;28;20203;-81
2021/04/24 00:05:44;;;;;;;7.27;4.50;;;9.50;55.60;;;;;;5093092;28;20187;-82
2021/04/24 00:08:12;;;;;;;5.22;4.65;;;9.50;55.90;;;;;;5074906;28;20164;-81
2021/04/24 00:10:40;;;;;;;7.70;5.70;;;9.50;56.00;;;;;;5074892;28;20167;-81
2021/04/24 00:13:08;;;;;;;9.07;5.05;;;9.50;56.10;;;;;;5074416;28;20566;-82
2021/04/24 00:15:37;;;;;;;6.50;5.32;;;9.40;56.10;;;;;;5100833;28;20183;-80
2021/04/24 00:18:04;;;;;;;8.75;5.00;;;9.50;56.40;;;;;;5095016;28;20171;-82
2021/04/24 00:20:30;;;;;;;5.75;4.70;;;9.40;56.20;;;;;;5094146;28;20168;-81
2021/04/24 00:22:56;;;;;;;7.32;5.07;;;9.40;56.40;;;;;;5057869;28;20207;-82
2021/04/24 00:25:22;;;;;;;6.03;4.03;;;9.30;56.50;;;;;;5092936;28;20184;-80
2021/04/24 00:27:48;;;;;;;6.27;4.40;;;9.30;56.60;;;;;;5092191;28;20948;-81
2021/04/24 00:30:20;;;;;;;7.15;4.45;;;9.30;56.70;;;;;;5062522;28;20564;-80
2021/04/24 00:32:47;;;;;;;5.68;4.45;;;9.20;56.90;;;;;;5092578;28;20179;-81
2021/04/24 00:35:15;;;;;;;8.43;5.38;;;9.20;56.80;;;;;;5074604;28;20223;-81
2021/04/24 00:37:50;;;;;;;6.38;4.70;;;9.20;56.90;;;;;;5076343;28;20523;-80
2021/04/24 00:40:17;;;;;;;7.00;4.80;;;9.20;56.90;;;;;;5074807;28;20168;-81
2021/04/24 00:42:46;;;;;;;10.68;5.55;;;9.10;57.10;;;;;;5092382;28;20718;-81
2021/04/24 00:45:14;;;;;;;10.60;4.85;;;9.10;57.30;;;;;;5091170;28;20176;-81
2021/04/24 00:47:44;;;;;;;7.32;4.50;;;9.10;57.40;;;;;;5092017;28;20250;-81
2021/04/24 00:50:13;;;;;;;11.50;5.15;;;9.10;57.30;;;;;;5074451;28;20160;-81
2021/04/24 00:52:39;;;;;;;7.70;3.95;;;9.00;57.30;;;;;;5074524;28;20625;-82
2021/04/24 00:55:05;;;;;;;7.47;4.20;;;9.00;57.40;;;;;;5075778;28;20235;-81
2021/04/24 00:57:32;;;;;;;8.48;4.40;;;9.00;57.30;;;;;;5073603;28;20942;-81
2021/04/24 01:00:05;;;;;;;5.32;4.15;;;9.00;57.40;;;;;;5074159;28;20179;-81
2021/04/24 01:02:31;;;;;;;7.15;4.97;;;9.00;57.50;;;;;;5074138;28;20195;-82
2021/04/24 01:04:56;;;;;;;6.13;3.70;;;9.00;57.50;;;;;;5057618;28;20666;-82
2021/04/24 01:07:22;;;;;;;7.80;4.90;;;8.90;57.50;;;;;;5091766;28;20179;-82
2021/04/24 01:09:48;;;;;;;7.60;4.50;;;8.90;58.10;;;;;;5091997;28;20171;-83
2021/04/24 01:12:14;;;;;;;6.80;4.27;;;8.90;57.60;;;;;;5092054;28;20731;-81
2021/04/24 01:14:42;;;;;;;5.95;4.03;;;8.90;57.70;;;;;;5091958;28;20990;-81
2021/04/24 01:17:08;;;;;;;5.50;3.80;;;8.80;57.80;;;;;;5091012;28;20313;-81
2021/04/24 01:19:34;;;;;;;5.90;3.40;;;8.80;57.70;;;;;;5077880;28;20206;-81
2021/04/24 01:22:08;;;;;;;9.20;4.47;;;8.80;57.80;;;;;;5059796;28;20746;-82
2021/04/24 01:24:35;;;;;;;6.60;4.30;;;8.80;58.10;;;;;;5076494;28;20186;-81
2021/04/24 01:27:01;;;;;;;5.03;3.15;;;8.80;57.90;;;;;;5093166;28;20193;-81
2021/04/24 01:29:27;;;;;;;10.90;4.35;;;8.70;57.80;;;;;;5095495;28;20550;-81
2021/04/24 01:31:53;;;;;;;8.23;4.20;;;8.70;57.90;;;;;;5064104;28;20228;-82
2021/04/24 01:34:24;;;;;;;4.30;3.63;;;8.70;57.90;;;;;;5077699;28;20187;-82
2021/04/24 01:36:50;;;;;;;6.50;4.15;;;8.70;58.20;;;;;;5094374;28;20168;-82
2021/04/24 01:39:16;;;;;;;10.20;4.33;;;8.70;58.10;;;;;;5076774;28;20193;-82
2021/04/24 01:41:44;;;;;;;6.30;3.63;;;8.60;58.20;;;;;;5094854;28;20617;-81
2021/04/24 01:44:12;;;;;;;5.80;3.70;;;8.60;58.20;;;;;;5076199;28;20230;-81
2021/04/24 01:46:38;;;;;;;5.73;4.20;;;8.60;58.30;;;;;;5093364;28;20156;-82
2021/04/24 01:49:04;;;;;;;6.77;3.27;;;8.60;58.40;;;;;;5091505;28;20581;-81
2021/04/24 01:51:32;;;;;;;7.13;4.00;;;8.60;58.50;;;;;;5091631;28;20302;-82
2021/04/24 01:53:58;;;;;;;6.93;4.32;;;8.50;58.50;;;;;;5091633;28;20842;-82
2021/04/24 01:56:24;;;;;;;4.30;3.37;;;8.50;58.60;;;;;;5090108;28;20186;-79
2021/04/24 01:58:53;;;;;;;6.57;3.27;;;8.50;58.70;;;;;;5073244;28;20604;-81
2021/04/24 02:01:19;;;;;;;5.32;3.60;;;8.40;58.80;;;;;;5073649;28;20958;-81
2021/04/24 02:03:48;;;;;;;7.87;3.10;;;8.50;58.90;;;;;;5073365;28;20213;-82
2021/04/24 02:06:15;;;;;;;6.57;3.65;;;8.40;59.00;;;;;;5091518;28;20943;-81
2021/04/24 02:08:44;;;;;;;5.20;3.40;;;8.40;59.20;;;;;;5096024;28;20221;-81
2021/04/24 02:11:12;;;;;;;8.82;4.22;;;8.30;59.20;;;;;;5091533;28;20167;-81
2021/04/24 02:13:41;;;;;;;7.57;4.95;;;8.30;59.50;;;;;;5091168;28;20171;-81
2021/04/24 02:16:09;;;;;;;9.13;5.05;;;8.30;59.70;;;;;;5073349;28;20168;-81
2021/04/24 02:18:35;;;;;;;6.40;4.40;;;8.20;59.70;;;;;;5090949;28;20178;-79
2021/04/24 02:21:02;;;;;;;7.57;4.17;;;8.20;59.80;;;;;;5073506;28;20246;-80
2021/04/24 02:23:32;;;;;;;6.90;4.40;;;8.20;60.00;;;;;;5073098;28;20574;-82
2021/04/24 02:25:58;;;;;;;8.88;4.57;;;8.10;60.60;;;;;;5075399;28;20243;-81
2021/04/24 02:28:24;;;;;;;5.37;3.33;;;8.10;60.50;;;;;;5059712;28;20278;-81
2021/04/24 02:30:52;;;;;;;5.47;4.20;;;8.10;60.60;;;;;;5093822;28;20570;-82
2021/04/24 02:33:18;;;;;;;6.13;3.63;;;8.10;60.80;;;;;;5077873;28;20175;-82
2021/04/24 02:35:47;;;;;;;6.33;3.77;;;8.00;61.00;;;;;;5077376;28;20183;-82
2021/04/24 02:38:17;;;;;;;5.80;3.97;;;8.00;61.30;;;;;;5077510;28;20585;-79
2021/04/24 02:40:43;;;;;;;5.78;3.60;;;8.00;61.50;;;;;;5096402;28;20203;-81
2021/04/24 02:43:09;;;;;;;6.28;3.40;;;8.00;61.60;;;;;;5095949;28;20191;-81
2021/04/24 02:45:35;;;;;;;6.25;3.47;;;7.90;61.50;;;;;;5098164;28;20183;-80
2021/04/24 02:48:01;;;;;;;4.60;3.20;;;7.90;61.90;;;;;;5094024;28;20166;-81
2021/04/24 02:50:34;;;;;;;5.53;4.40;;;7.90;62.00;;;;;;5093412;28;20163;-81
2021/04/24 02:53:00;;;;;;;6.40;3.67;;;7.90;62.10;;;;;;5076301;28;20681;-81
2021/04/24 02:55:28;;;;;;;7.70;4.10;;;7.90;62.20;;;;;;5075066;28;20192;-81
2021/04/24 02:57:54;;;;;;;4.97;3.00;;;7.90;62.60;;;;;;5058620;28;20656;-81
2021/04/24 03:00:21;;;;;;;6.63;3.87;;;7.90;62.70;;;;;;5089709;28;20168;-81
2021/04/24 03:02:57;;;;;;;4.85;3.50;;;7.80;62.80;;;;;;5056256;28;20608;-81
2021/04/24 03:05:23;;;;;;;5.80;4.55;;;7.80;62.90;;;;;;5039301;28;20211;-82
2021/04/24 03:07:49;;;;;;;4.97;3.43;;;7.80;63.20;;;;;;5089097;28;20227;-81
2021/04/24 03:10:15;;;;;;;6.70;4.10;;;7.80;63.50;;;;;;5073655;28;20259;-82
2021/04/24 03:12:40;;;;;;;5.50;3.30;;;7.80;63.80;;;;;;5073795;28;20618;-81
2021/04/24 03:15:07;;;;;;;5.40;3.30;;;7.80;64.00;;;;;;5072424;28;21153;-82
2021/04/24 03:17:33;;;;;;;7.63;4.13;;;7.70;63.90;;;;;;5073591;28;20620;-82
2021/04/24 03:19:59;;;;;;;3.97;2.80;;;7.70;64.00;;;;;;5038963;28;20259;-82
2021/04/24 03:22:25;;;;;;;3.30;2.50;;;7.70;64.30;;;;;;5057317;28;20664;-81
2021/04/24 03:24:53;;;;;;;4.78;3.03;;;7.70;64.10;;;;;;5055852;28;21165;-80
2021/04/24 03:27:18;;;;;;;6.40;3.13;;;7.70;64.40;;;;;;5072941;28;20180;-80
2021/04/24 03:29:44;;;;;;;7.23;3.37;;;7.60;64.20;;;;;;5072168;28;20642;-80
2021/04/24 03:32:13;;;;;;;4.38;2.13;;;7.60;64.40;;;;;;5038573;28;20559;-81
2021/04/24 03:34:38;;;;;;;6.67;2.63;;;7.60;64.50;;;;;;5088879;28;20191;-80
2021/04/24 03:37:04;;;;;;;3.83;2.90;;;7.60;64.80;;;;;;5087246;28;20253;-81
2021/04/24 03:39:30;;;;;;;3.30;1.90;;;7.60;64.80;;;;;;5055294;28;20272;-80
2021/04/24 03:41:56;;;;;;;6.17;2.77;;;7.60;65.00;;;;;;5055385;28;20550;-82
2021/04/24 03:44:21;;;;;;;6.93;2.70;;;7.60;65.00;;;;;;5073078;28;20183;-81
2021/04/24 03:46:50;;;;;;;4.13;2.80;;;7.50;65.30;;;;;;5054970;28;20246;-82
2021/04/24 03:49:16;;;;;;;3.60;2.45;;;7.60;65.70;;;;;;5088681;28;20169;-80
2021/04/24 03:51:42;;;;;;;2.83;2.10;;;7.50;65.40;;;;;;5088581;28;20194;-81
2021/04/24 03:54:07;;;;;;;3.13;2.23;;;7.50;65.50;;;;;;5038088;28;20947;-81
2021/04/24 03:56:42;;;;;;;3.90;2.35;;;7.50;65.80;;;;;;5182391;22;20231;-82
2021/04/24 03:59:18;;;;;;;8.05;2.78;;;7.50;66.30;;;;;;5097784;28;20163;-82
2021/04/24 04:02:20;;;;;;;5.05;3.15;;;7.50;65.80;;;;;;5126220;28;20219;-82
2021/04/24 04:05:10;;;;;;;3.58;2.65;;;7.50;66.90;;;;;;5096736;28;20183;-82
2021/04/24 04:07:45;;;;;;;3.65;2.28;;;7.50;66.00;;;;;;5095450;28;20167;-82
2021/04/24 04:10:17;;;;;;;2.88;2.25;;;7.50;66.30;;;;;;5088735;28;20245;-82
2021/04/24 04:12:53;;;;;;;4.78;2.40;;;7.50;66.60;;;;;;5085703;28;20203;-82
2021/04/24 04:15:25;;;;;;;4.90;2.30;;;7.50;67.00;;;;;;5096776;28;20168;-82
2021/04/24 04:18:03;;;;;;;4.72;2.55;;;7.50;67.10;;;;;;5103080;28;20178;-82
2021/04/24 04:20:30;;;;;;;5.32;2.83;;;7.40;67.70;;;;;;5101673;28;20164;-82
2021/04/24 04:23:03;;;;;;;6.15;2.65;;;7.40;67.90;;;;;;5102134;28;20168;-82
2021/04/24 04:25:49;;;;;;;4.32;2.80;;;7.40;67.20;;;;;;5099684;28;20211;-82
2021/04/24 04:28:28;;;;;;;2.88;2.00;;;7.40;67.90;;;;;;5095740;28;20193;-82
2021/04/24 04:30:59;;;;;;;3.63;2.20;;;7.40;67.70;;;;;;5103754;28;20674;-81
2021/04/24 04:33:37;;;;;;;3.58;1.90;;;7.40;68.00;;;;;;5113644;28;20198;-81
2021/04/24 04:36:11;;;;;;;5.35;2.33;;;7.40;68.20;;;;;;5112329;28;20187;-80
2021/04/24 04:38:44;;;;;;;5.63;2.08;;;7.40;68.50;;;;;;5108805;28;20251;-81
2021/04/24 04:41:15;;;;;;;4.63;2.47;;;7.40;68.60;;;;;;5092138;28;20181;-81
2021/04/24 04:44:04;;;;;;;;;;;;;;;;;;;;;
2021/04/24 04:46:53;;;;;;;3.40;2.60;;;7.50;69.50;;;;;;5096801;28;20188;-81
2021/04/24 04:49:59;;;;;;;4.38;2.78;;;7.50;69.10;;;;;;5105104;28;20163;-81
2021/04/24 04:53:07;;;;;;;3.92;2.55;;;7.60;70.30;;;;;;5103096;28;20204;-82
2021/04/24 04:56:02;;;;;;;3.28;2.97;;;7.70;69.60;;;;;;5123380;28;20581;-81
2021/04/24 04:58:52;;;;;;;2.75;2.25;;;7.70;70.30;;;;;;5109929;28;20164;-82
2021/04/24 05:01:50;;;;;;;4.53;2.28;;;7.80;69.90;;;;;;5106783;28;20163;-82
2021/04/24 05:04:44;;;;;;;6.00;2.33;;;7.90;70.00;;;;;;5089524;28;20199;-82
2021/04/24 05:07:11;;;;;;;6.53;3.13;;;8.00;70.10;;;;;;5094295;28;20194;-81
2021/04/24 05:09:55;;;;;;;5.80;3.08;;;8.00;70.30;;;;;;5094002;28;20642;-81
2021/04/24 05:12:47;;;;;;;6.47;3.22;;;8.10;70.60;;;;;;5089092;28;20582;-81
2021/04/24 05:15:30;;;;;;;6.05;3.40;;;8.20;70.90;;;;;;5086429;28;20207;-81
2021/04/24 05:18:12;;;;;;;5.32;3.50;;;8.20;71.00;;;;;;5096345;28;20172;-81
2021/04/24 05:20:48;;;;;;;4.03;2.67;;;8.30;71.30;;;;;;5081072;28;20294;-81
2021/04/24 05:23:29;;;;;;;7.10;3.13;;;8.40;71.20;;;;;;5097282;28;20214;-81
2021/04/24 05:26:21;;;;;;;5.63;3.22;;;8.40;71.40;;;;;;5092913;28;20188;-81
2021/04/24 05:29:10;;;;;;;;;;;;;;;;;;;;;
2021/04/24 05:32:26;;;;;;;5.13;3.25;;;8.60;71.70;;;;;;5088459;28;20217;-81
2021/04/24 05:35:36;;;;;;;5.70;3.33;;;8.60;71.70;;;;;;5074974;28;20663;-81
2021/04/24 05:38:30;;;;;;;3.95;3.10;;;8.80;72.00;;;;;;5095587;28;20187;-81
2021/04/24 05:41:33;;;;;;;3.85;2.35;;;8.80;71.90;;;;;;5073522;28;20184;-81
2021/04/24 05:44:10;;;;;;;3.20;2.10;;;9.00;72.20;;;;;;5076082;28;20164;-82
2021/04/24 05:46:49;;;;;;;4.63;3.13;;;9.00;72.10;;;;;;5073722;28;20184;-82
2021/04/24 05:49:36;;;;;;;3.88;2.80;;;9.10;72.40;;;;;;5088049;28;20164;-82
2021/04/24 05:52:36;;;;;;;2.90;2.40;;;9.20;72.70;;;;;;5094421;28;20212;-82
2021/04/24 05:55:28;;;;;;;7.10;2.50;;;9.30;72.40;;;;;;5099764;28;20160;-82
2021/04/24 05:58:02;;;;;;;6.63;3.47;;;9.50;72.50;;;;;;5089984;28;20803;-82
2021/04/24 06:00:45;;;;;;;5.10;3.22;;;9.60;72.50;;;;;;5089952;28;20665;-81
2021/04/24 06:03:27;;;;;;;4.50;3.20;;;9.60;72.70;;;;;;5092026;28;20200;-81
2021/04/24 06:05:55;;;;;;;5.40;2.75;;;9.80;72.80;;;;;;5089514;28;20191;-80
2021/04/24 06:08:38;;;;;;;7.38;3.75;;;9.90;72.80;;;;;;5084574;28;20168;-81
2021/04/24 06:11:10;;;;;;;5.50;3.22;;;10.00;71.80;;;;;;5066222;28;20168;-81
2021/04/24 06:13:56;;;;;;;5.25;3.03;;;10.20;72.00;;;;;;5083649;28;20156;-80
2021/04/24 06:16:44;;;;;;;4.40;2.55;;;10.40;72.10;;;;;;5082307;28;20215;-81
2021/04/24 06:19:54;;;;;;;3.42;2.58;;;10.60;72.20;;;;;;5047586;28;20202;-80
2021/04/24 06:22:43;;;;;;;4.30;2.65;;;10.80;72.20;;;;;;5085819;28;20206;-80
2021/04/24 06:25:46;;;;;;;5.80;3.55;;;11.10;72.10;;;;;;5068457;28;20191;-80
2021/04/24 06:28:31;;;;;;;7.47;2.65;;;11.40;72.20;;;;;;5085221;28;20188;-81
2021/04/24 06:31:02;;;;;;;8.57;3.40;;;11.60;72.30;;;;;;5081273;28;20164;-80
2021/04/24 06:34:03;;;;;;;;;;;;;;;;;;;;;
2021/04/24 06:36:53;;;;;;;6.45;3.47;;;12.20;71.30;;;;;;5097998;28;20196;-80
2021/04/24 06:39:40;;;;;;;5.53;2.58;;;12.60;71.40;;;;;;5097911;28;20171;-80
2021/04/24 06:42:17;;;;;;;3.83;2.00;;;13.00;70.90;;;;;;5097934;28;20597;-79
2021/04/24 06:44:55;;;;;;;3.22;1.67;;;13.40;70.50;;;;;;5100047;28;20179;-80
2021/04/24 06:47:46;;;;;;;3.60;2.38;;;13.70;70.80;;;;;;5118404;28;20184;-79
2021/04/24 06:50:33;;;;;;;3.60;2.10;;;14.20;69.70;;;;;;5118424;28;20211;-79
2021/04/24 06:53:41;;;;;;;;;;;;;;;;;;;;;
2021/04/24 06:56:22;;;;;;;3.47;2.33;;;15.00;67.10;;;;;;5119080;28;20221;-79
2021/04/24 06:58:53;;;;;;;3.83;2.40;;;15.60;67.10;;;;;;5103221;28;20597;-79
2021/04/24 07:01:34;;;;;;;5.40;2.53;;;16.00;66.70;;;;;;5102423;28;20585;-80
2021/04/24 07:04:31;;;;;;;;;;;;;;;;;;;;;
2021/04/24 07:07:13;;;;;;;4.63;2.40;;;16.90;65.40;;;;;;5117867;28;20597;-79
2021/04/24 07:09:41;;;;;;;5.47;3.20;;;17.30;64.70;;;;;;5117144;28;20616;-80
2021/04/24 07:12:46;;;;;;;4.13;3.00;;;17.70;64.20;;;;;;5113963;28;20577;-81
2021/04/24 07:15:43;;;;;;;;;;;;;;;;;;;;;
2021/04/24 07:18:31;;;;;;;3.60;2.90;;;18.70;63.10;;;;;;5119799;28;20570;-80
2021/04/24 07:21:44;;;;;;;4.10;2.50;;;19.30;63.60;;;;;;5134604;27;20631;-80
2021/04/24 07:24:48;;;;;;;;;;;;;;;;;;;;;
2021/04/24 07:27:52;;;;;;;4.43;2.77;;;20.10;60.40;;;;;;5109140;28;20624;-81
2021/04/24 07:30:34;;;;;;;3.70;2.40;;;20.50;59.00;;;;;;5118764;28;20574;-80
2021/04/24 07:33:25;;;;;;;4.80;2.13;;;21.00;59.60;;;;;;5114168;28;20669;-80
2021/04/24 07:36:07;;;;;;;2.03;1.80;;;21.60;59.40;;;;;;5108877;28;20601;-79
2021/04/24 07:41:54;;;;;;;2.93;1.97;;;23.20;58.40;;;;;;5107777;28;20620;-79
2021/04/24 07:44:52;;;;;;;3.47;1.80;;;24.10;57.30;;;;;;5080037;28;20590;-78
2021/04/24 07:47:23;;;;;;;3.47;2.17;;;24.70;55.40;;;;;;5096086;28;20598;-79
2021/04/24 07:50:23;;;;;;;4.63;1.77;;;25.00;54.20;;;;;;5090731;28;20599;-79
2021/04/24 07:53:38;;;;;;;2.97;2.10;;;25.30;52.20;;;;;;5097598;28;20551;-79
2021/04/24 07:56:50;;;;;;;;;;;;;;;;;;;;;
2021/04/24 08:00:11;;;;;;;4.37;1.60;;;25.40;49.80;;;;;;5138676;27;20703;-79
2021/04/24 08:03:27;;;;;;;2.30;1.80;;;25.30;49.20;;;;;;5116284;28;20624;-78
2021/04/24 08:06:15;;;;;;;2.43;1.67;;;24.90;48.80;;;;;;5117014;28;20589;-80
2021/04/24 08:12:41;;;;;;;2.90;1.70;;;24.70;48.80;;;;;;5084601;28;20574;-79
2021/04/24 08:15:46;;;;;;;2.43;1.00;;;25.00;48.70;;;;;;5110937;28;20669;-80
2021/04/24 08:18:36;;;;;;;2.47;1.10;;;25.20;46.80;;;;;;5115950;28;20557;-79
2021/04/24 08:21:45;;;;;;;3.70;1.30;;;25.20;46.30;;;;;;5116840;28;20561;-79
2021/04/24 08:24:30;;;;;;;1.70;1.40;;;25.50;47.20;;;;;;5114421;28;20570;-78
2021/04/24 08:27:18;;;;;;;2.43;1.00;;;25.80;47.20;;;;;;5112052;28;20628;-79
2021/04/24 08:30:21;;;;;;;2.30;1.80;;;26.40;46.40;;;;;;5128225;28;20613;-79
2021/04/24 08:33:08;;;;;;;6.50;1.73;;;27.00;46.20;;;;;;5122311;28;20578;-80
2021/04/24 08:35:47;;;;;;;5.90;1.37;;;27.50;46.50;;;;;;5112953;28;20589;-79
2021/04/24 08:38:23;;;;;;;2.40;1.20;;;28.10;45.60;;;;;;5112214;28;20561;-79
2021/04/24 08:41:05;;;;;;;1.83;1.00;;;28.50;45.20;;;;;;5112509;28;20570;-80
2021/04/24 08:43:47;;;;;;;2.30;1.10;;;28.70;43.80;;;;;;5112900;28;20593;-79
2021/04/24 08:46:59;;;;;;;3.93;1.20;;;28.90;43.90;;;;;;5105701;28;20669;-79
2021/04/24 08:49:54;;;;;;;1.90;1.20;;;29.10;43.00;;;;;;5100749;28;20614;-80
2021/04/24 08:52:32;;;;;;;4.03;1.63;;;29.40;42.80;;;;;;5115459;28;20633;-80
2021/04/24 08:55:14;;;;;;;1.80;1.10;;;29.30;41.10;;;;;;5115773;28;20566;-79
2021/04/24 08:57:49;;;;;;;2.80;1.77;;;29.30;40.70;;;;;;5114974;28;20656;-79
2021/04/24 09:00:58;;;;;;;2.57;1.13;;;29.50;40.50;;;;;;5089623;28;20594;-78
2021/04/24 09:03:26;;;;;;;1.83;1.20;;;29.70;39.20;;;;;;5113331;28;20557;-80
2021/04/24 09:06:02;;;;;;;3.00;1.57;;;29.80;38.20;;;;;;5129019;28;20999;-80
2021/04/24 09:12:00;;;;;;;1.77;1.23;;;29.90;37.00;;;;;;5109969;28;20629;-81
2021/04/24 09:15:04;;;;;;;4.67;1.40;;;29.90;37.00;;;;;;5113117;28;20565;-80
2021/04/24 09:18:16;;;;;;;2.63;1.10;;;29.80;36.60;;;;;;5112214;28;20586;-80
2021/04/24 09:21:13;;;;;;;3.17;1.90;;;29.80;37.60;;;;;;5111221;28;20574;-81
2021/04/24 09:24:04;;;;;;;2.47;1.60;;;29.90;36.90;;;;;;5111448;28;20583;-79
2021/04/24 09:26:46;;;;;;;2.77;1.67;;;30.20;38.20;;;;;;5104461;28;20593;-83
2021/04/24 09:29:32;;;;;;;5.40;2.00;;;30.40;36.80;;;;;;5106405;28;20659;-83
2021/04/24 09:32:22;;;;;;;2.30;1.70;;;30.70;37.60;;;;;;5103631;28;20642;-82
2021/04/24 09:35:00;;;;;;;3.40;2.17;;;31.00;37.00;;;;;;5103210;28;20577;-79
2021/04/24 09:37:37;;;;;;;4.10;1.97;;;31.30;36.60;;;;;;5092630;28;20590;-79
2021/04/24 09:40:12;;;;;;;2.53;1.77;;;31.50;36.70;;;;;;5095080;28;20562;-79
2021/04/24 09:42:44;;;;;;;2.03;1.43;;;31.70;35.80;;;;;;5087564;28;20960;-79
2021/04/24 09:45:46;;;;;;;6.60;1.70;;;31.80;35.70;;;;;;5089836;28;20589;-80
2021/04/24 09:48:28;;;;;;;2.60;1.57;;;32.00;35.70;;;;;;5083709;28;20558;-80
2021/04/24 09:51:11;;;;;;;3.03;1.80;;;32.10;35.30;;;;;;5081653;28;20589;-80
2021/04/24 09:53:41;;;;;;;5.00;2.40;;;32.10;34.60;;;;;;5078390;28;20204;-80
2021/04/24 09:56:14;;;;;;;3.40;2.07;;;32.10;33.80;;;;;;5043218;28;20690;-80
2021/04/24 09:58:53;;;;;;;2.43;1.83;;;31.90;33.10;;;;;;5080742;28;20623;-81
2021/04/24 10:01:32;;;;;;;2.63;2.27;;;31.80;33.80;;;;;;5072767;28;20562;-81
2021/04/24 10:03:59;;;;;;;1.90;1.70;;;31.80;33.60;;;;;;5087962;28;20657;-82
2021/04/24 10:06:34;;;;;;;3.83;1.90;;;31.90;33.90;;;;;;5084680;28;20613;-81
2021/04/24 10:09:12;;;;;;;1.77;1.63;;;31.90;33.20;;;;;;5068817;28;20591;-79
2021/04/24 10:11:39;;;;;;;2.83;1.83;;;31.90;33.40;;;;;;5094742;28;20722;-79
2021/04/24 10:14:06;;;;;;;4.73;1.83;;;31.90;32.50;;;;;;5086642;28;20575;-79
2021/04/24 10:16:43;;;;;;;2.77;2.27;;;31.70;31.80;;;;;;5085136;28;20605;-79
2021/04/24 10:19:11;;;;;;;11.13;2.63;;;31.60;32.20;;;;;;5090528;28;20605;-80
2021/04/24 10:21:37;;;;;;;2.90;1.73;;;31.60;32.20;;;;;;5078374;28;20606;-80
2021/04/24 10:24:06;;;;;;;1.97;1.77;;;31.50;32.00;;;;;;5078112;28;20570;-79
2021/04/24 10:26:33;;;;;;;2.30;1.50;;;30.90;31.30;;;;;;5074786;28;20676;-79
2021/04/24 10:29:08;;;;;;;2.20;1.40;;;30.50;31.90;;;;;;5075311;28;20597;-79
2021/04/24 10:31:38;;;;;;;3.67;1.80;;;30.50;32.30;;;;;;5088889;28;20731;-80
2021/04/24 10:34:05;;;;;;;3.73;2.00;;;30.40;32.30;;;;;;5096814;28;20566;-79
2021/04/24 10:36:35;;;;;;;2.70;1.97;;;30.30;32.20;;;;;;5095757;28;20596;-80
2021/04/24 10:39:21;;;;;;;2.73;2.40;;;30.20;32.00;;;;;;5096429;28;20566;-79
2021/04/24 10:41:57;;;;;;;3.33;1.83;;;30.00;32.40;;;;;;5101711;28;20978;-79
2021/04/24 10:44:25;;;;;;;2.80;1.73;;;29.70;32.10;;;;;;5095183;28;20576;-80
2021/04/24 10:46:56;;;;;;;2.50;2.27;;;29.40;31.90;;;;;;5095908;28;20692;-79
2021/04/24 10:49:32;;;;;;;2.40;2.10;;;29.00;31.50;;;;;;5099729;28;21040;-79
2021/04/24 10:51:58;;;;;;;3.50;2.07;;;28.60;31.90;;;;;;5096749;28;20613;-80
2021/04/24 10:54:28;;;;;;;2.93;2.47;;;28.30;32.10;;;;;;5099838;28;20574;-80
2021/04/24 10:56:55;;;;;;;5.83;2.47;;;28.00;31.80;;;;;;5095394;28;20196;-81
2021/04/24 10:59:33;;;;;;;3.40;2.50;;;27.60;31.30;;;;;;5108595;28;20562;-80
2021/04/24 11:02:05;;;;;;;1.83;1.53;;;27.10;31.80;;;;;;5109935;28;20633;-81
2021/04/24 11:04:50;;;;;;;3.00;1.87;;;26.80;32.40;;;;;;5088709;28;20580;-81
2021/04/24 11:07:25;;;;;;;3.13;2.67;;;26.70;32.40;;;;;;5103180;28;20817;-81
2021/04/24 11:10:13;;;;;;;3.03;1.97;;;26.50;32.60;;;;;;5105362;28;20573;-80
2021/04/24 11:12:47;;;;;;;1.90;1.50;;;26.30;32.60;;;;;;5113459;28;20621;-79
2021/04/24 11:15:21;;;;;;;2.77;2.17;;;26.20;33.00;;;;;;5108996;28;20566;-80
2021/04/24 11:17:48;;;;;;;2.30;1.80;;;26.10;33.10;;;;;;5121325;28;20621;-81
2021/04/24 11:20:54;;;;;;;2.20;1.57;;;26.20;33.30;;;;;;5110285;28;20564;-80
2021/04/24 11:23:40;;;;;;;4.67;2.13;;;26.30;33.50;;;;;;5120062;28;20574;-80
2021/04/24 11:26:09;;;;;;;5.70;1.87;;;26.40;33.90;;;;;;5109745;28;20593;-80
2021/04/24 11:28:57;;;;;;;2.43;1.90;;;26.60;34.10;;;;;;5105490;28;20645;-80
2021/04/24 11:31:45;;;;;;;2.00;1.57;;;26.70;33.80;;;;;;5112324;28;20573;-81
2021/04/24 11:34:34;;;;;;;3.90;1.50;;;26.70;33.40;;;;;;5130290;28;21177;-80
2021/04/24 11:37:13;;;;;;;2.20;1.80;;;26.80;33.50;;;;;;5111117;28;20604;-81
2021/04/24 11:40:23;;;;;;;2.40;1.90;;;26.90;33.50;;;;;;5106601;28;20630;-81
2021/04/24 11:43:00;;;;;;;5.20;2.30;;;26.70;32.70;;;;;;5116022;28;20581;-81
2021/04/24 11:46:03;;;;;;;2.63;1.70;;;26.50;32.80;;;;;;5117220;28;20594;-81
2021/04/24 11:48:47;;;;;;;2.70;1.80;;;26.20;32.90;;;;;;5035203;28;20581;-81
2021/04/24 11:51:37;;;;;;;12.90;2.57;;;26.00;32.50;;;;;;5111067;28;20669;-81
2021/04/24 11:54:11;;;;;;;3.07;2.37;;;25.80;32.70;;;;;;5105618;28;20570;-80
2021/04/24 11:56:39;;;;;;;2.63;1.53;;;25.50;32.60;;;;;;5112349;28;20621;-80
2021/04/24 11:59:07;;;;;;;4.23;1.70;;;25.40;32.80;;;;;;5113847;28;20639;-81
2021/04/24 12:01:33;;;;;;;3.30;1.93;;;25.20;33.10;;;;;;5114343;28;20581;-80
2021/04/24 12:03:59;;;;;;;3.43;1.83;;;25.10;32.90;;;;;;5115886;28;20580;-80
2021/04/24 12:06:39;;;;;;;3.40;2.13;;;24.90;33.00;;;;;;5114129;28;20203;-80
2021/04/24 12:09:15;;;;;;;2.87;2.07;;;24.70;32.90;;;;;;5113129;28;20171;-80
2021/04/24 12:11:57;;;;;;;2.60;1.87;;;24.50;33.30;;;;;;5111083;28;20713;-81
2021/04/24 12:14:24;;;;;;;3.90;2.23;;;24.50;33.40;;;;;;5112043;28;20577;-81
2021/04/24 12:16:53;;;;;;;3.27;2.20;;;24.40;33.60;;;;;;5111385;28;20578;-81
2021/04/24 12:19:33;;;;;;;3.27;1.97;;;24.30;33.80;;;;;;5131425;27;20830;-81
2021/04/24 12:22:10;;;;;;;3.47;2.30;;;24.20;33.90;;;;;;5112907;28;20643;-80
2021/04/24 12:25:19;;;;;;;2.70;1.80;;;24.10;33.80;;;;;;5096177;28;20565;-81
2021/04/24 12:27:50;;;;;;;3.50;1.67;;;23.70;33.30;;;;;;5062933;28;20566;-80
2021/04/24 12:30:18;;;;;;;3.70;2.20;;;23.60;34.50;;;;;;5090058;28;20561;-81
2021/04/24 12:33:07;;;;;;;3.67;2.30;;;23.50;33.60;;;;;;5105789;28;20629;-81
2021/04/24 12:35:55;;;;;;;3.20;2.20;;;23.20;33.50;;;;;;5093678;28;21206;-81
2021/04/24 12:38:29;;;;;;;4.10;1.83;;;22.90;33.80;;;;;;5091917;28;20715;-81
2021/04/24 12:41:06;;;;;;;3.97;1.57;;;22.70;33.80;;;;;;5071393;28;21228;-81
2021/04/24 12:43:40;;;;;;;2.43;2.20;;;22.60;33.70;;;;;;5066091;28;20565;-81
2021/04/24 12:46:13;;;;;;;3.50;1.50;;;22.40;33.70;;;;;;5100092;28;20685;-80
2021/04/24 12:48:49;;;;;;;3.40;2.20;;;22.10;33.50;;;;;;5065634;28;20585;-80
2021/04/24 12:51:17;;;;;;;2.43;1.73;;;21.90;33.60;;;;;;5079972;28;20573;-80
2021/04/24 12:53:45;;;;;;;2.70;1.93;;;21.60;33.40;;;;;;5093614;28;20566;-80
2021/04/24 12:56:25;;;;;;;2.37;1.60;;;21.40;33.40;;;;;;5077188;28;20598;-80
2021/04/24 12:58:54;;;;;;;2.60;1.70;;;21.10;33.40;;;;;;5104207;28;20621;-80
2021/04/24 13:01:41;;;;;;;2.37;1.30;;;20.90;33.40;;;;;;5089628;28;20577;-80
2021/04/24 13:04:20;;;;;;;3.70;1.90;;;20.60;33.50;;;;;;5093754;28;20575;-81
2021/04/24 13:06:57;;;;;;;3.17;1.20;;;20.40;33.40;;;;;;5106842;28;20589;-81
2021/04/24 13:09:38;;;;;;;3.73;2.33;;;20.10;33.40;;;;;;5103670;28;20600;-82
2021/04/24 13:12:07;;;;;;;3.33;1.77;;;19.90;33.60;;;;;;5101482;28;20570;-83
2021/04/24 13:14:53;;;;;;;2.83;2.17;;;19.70;33.70;;;;;;5063825;28;20586;-81
2021/04/24 13:17:23;;;;;;;2.03;1.20;;;19.50;34.20;;;;;;5067348;28;20647;-81
2021/04/24 13:19:55;;;;;;;2.17;1.87;;;19.40;34.00;;;;;;5083160;28;20581;-81
2021/04/24 13:22:37;;;;;;;4.37;1.73;;;19.30;34.10;;;;;;5081279;28;20601;-81
2021/04/24 13:25:08;;;;;;;3.50;1.97;;;19.20;35.80;;;;;;5096818;28;20562;-80
2021/04/24 13:27:37;;;;;;;4.47;2.10;;;19.10;34.70;;;;;;5082054;28;20609;-81
2021/04/24 13:30:13;;;;;;;3.30;1.80;;;19.00;34.80;;;;;;5091803;28;20567;-81
2021/04/24 13:32:59;;;;;;;3.57;1.30;;;19.00;34.70;;;;;;5067278;28;20578;-81
2021/04/24 13:35:45;;;;;;;2.67;1.47;;;18.90;35.00;;;;;;5084904;28;20566;-81
2021/04/24 13:38:16;;;;;;;3.33;1.70;;;18.90;35.00;;;;;;5049157;28;20660;-81
2021/04/24 13:40:43;;;;;;;2.00;1.30;;;18.90;35.00;;;;;;5082379;28;20950;-81
2021/04/24 13:43:09;;;;;;;2.67;1.87;;;18.90;35.00;;;;;;5082806;28;20574;-81
2021/04/24 13:45:36;;;;;;;6.30;1.37;;;19.00;35.20;;;;;;5081827;28;20604;-81
2021/04/24 13:48:10;;;;;;;4.40;1.20;;;19.00;35.20;;;;;;5049987;28;20642;-81
2021/04/24 13:50:37;;;;;;;3.60;1.70;;;19.10;35.70;;;;;;5069113;28;20582;-81
2021/04/24 13:53:09;;;;;;;3.20;1.20;;;19.10;35.60;;;;;;5085455;28;20573;-80
2021/04/24 13:55:36;;;;;;;1.93;1.50;;;19.10;35.30;;;;;;5067900;28;20614;-81
2021/04/24 13:58:11;;;;;;;3.83;2.03;;;19.10;35.40;;;;;;5083049;28;20659;-81
2021/04/24 14:00:38;;;;;;;2.50;1.87;;;19.00;35.30;;;;;;5064076;28;20569;-82
2021/04/24 14:03:07;;;;;;;5.60;2.90;;;19.10;35.30;;;;;;5082741;28;20562;-82
2021/04/24 14:05:33;;;;;;;3.43;1.43;;;19.00;35.50;;;;;;5064605;28;20614;-81